Time;durP1;ratioP1;P1;durP2;ratioP2;P2;SDS_P1;SDS_P2;PMS_P1;PMS_P2;Temp;Humidity;BMP_temperature;BMP_pressure;BME280_temperature;BME280_humidity;BME280_pressure;Samples;Min_cycle;Max_cycle;Signal;HPM_P1;HPM_P2
2021/03/01 00:02:21;;;;;;;20.17;15.97;;;7.00;99.90;;;;;;5094024;28;20235;-85
2021/03/01 00:04:46;;;;;;;19.03;16.07;;;6.90;99.90;;;;;;5096194;28;20202;-85
2021/03/01 00:07:12;;;;;;;21.20;16.27;;;6.90;99.90;;;;;;5098043;28;20168;-85
2021/03/01 00:09:38;;;;;;;22.67;16.80;;;6.90;99.90;;;;;;5114004;28;20183;-84
2021/03/01 00:12:13;;;;;;;18.97;15.73;;;6.90;99.90;;;;;;5113985;28;20221;-87
2021/03/01 00:14:48;;;;;;;22.17;17.53;;;7.00;99.90;;;;;;5096074;28;20268;-86
2021/03/01 00:17:43;;;;;;;24.90;17.03;;;7.00;99.90;;;;;;5102942;28;20186;-84
2021/03/01 00:20:18;;;;;;;21.03;16.90;;;6.90;99.90;;;;;;5102327;28;20229;-82
2021/03/01 00:22:45;;;;;;;19.73;15.13;;;6.80;99.90;;;;;;5098959;28;20198;-83
2021/03/01 00:25:14;;;;;;;22.77;16.77;;;6.90;99.90;;;;;;5097066;28;20595;-87
2021/03/01 00:27:48;;;;;;;22.80;15.63;;;6.90;99.90;;;;;;5098397;28;20188;-86
2021/03/01 00:30:15;;;;;;;21.40;17.10;;;6.80;99.90;;;;;;5085534;28;20183;-86
2021/03/01 00:32:44;;;;;;;20.57;16.33;;;6.70;99.90;;;;;;5097098;28;20179;-84
2021/03/01 00:35:41;;;;;;;20.67;16.50;;;6.70;99.90;;;;;;5107828;28;20204;-82
2021/03/01 00:38:33;;;;;;;19.20;15.50;;;6.80;99.90;;;;;;5111985;27;20175;-81
2021/03/01 00:41:03;;;;;;;21.37;17.13;;;6.80;99.90;;;;;;5106171;27;20263;-86
2021/03/01 00:43:50;;;;;;;21.33;16.60;;;6.70;99.90;;;;;;5099301;28;20160;-87
2021/03/01 00:47:00;;;;;;;24.00;18.20;;;6.70;99.90;;;;;;5098315;28;20194;-87
2021/03/01 00:49:35;;;;;;;24.60;16.87;;;6.70;99.90;;;;;;5082735;28;20231;-86
2021/03/01 00:52:01;;;;;;;22.67;16.83;;;6.70;99.90;;;;;;5099553;28;20230;-88
2021/03/01 00:54:36;;;;;;;28.10;18.13;;;6.70;99.90;;;;;;5101217;28;20178;-86
2021/03/01 00:57:02;;;;;;;22.07;16.73;;;6.70;99.90;;;;;;5118688;27;20170;-85
2021/03/01 00:59:37;;;;;;;21.10;16.33;;;6.70;99.90;;;;;;5117075;28;20194;-85
2021/03/01 01:02:06;;;;;;;23.17;17.23;;;6.60;99.90;;;;;;5117240;28;20197;-86
2021/03/01 01:04:35;;;;;;;24.20;18.23;;;6.60;99.90;;;;;;5115229;28;20172;-85
2021/03/01 01:07:04;;;;;;;24.63;18.20;;;6.60;99.90;;;;;;5120113;27;20170;-84
2021/03/01 01:09:33;;;;;;;23.57;17.57;;;6.60;99.90;;;;;;5118624;27;20163;-87
2021/03/01 01:23:30;;;;;;;;;;;;;;;;;;;;;
2021/03/01 01:26:37;;;;;;;26.23;18.17;;;6.50;99.90;;;;;;4957222;28;20706;-87
2021/03/01 01:32:31;;;;;;;23.27;18.33;;;6.40;99.90;;;;;;5007521;28;20185;-86
2021/03/01 01:38:52;;;;;;;23.50;18.33;;;6.30;99.90;;;;;;5044679;28;20192;-87
2021/03/01 01:41:30;;;;;;;26.33;19.63;;;6.30;99.90;;;;;;5084139;28;20175;-87
2021/03/01 01:45:13;;;;;;;;;;;;;;;;;;;;;
2021/03/01 01:47:50;;;;;;;25.37;19.57;;;6.40;99.90;;;;;;5107654;27;20179;-86
2021/03/01 01:50:46;;;;;;;;;;;;;;;;;;;;;
2021/03/01 01:53:14;;;;;;;26.27;18.13;;;6.40;99.90;;;;;;5116701;27;20199;-86
2021/03/01 01:55:45;;;;;;;24.83;19.33;;;6.40;99.90;;;;;;5097890;28;20217;-87
2021/03/01 01:58:12;;;;;;;24.93;19.30;;;6.30;99.90;;;;;;5098097;28;20164;-87
2021/03/01 02:04:54;;;;;;;24.47;18.40;;;6.30;99.90;;;;;;5098173;28;20198;-87
2021/03/01 02:08:28;;;;;;;28.40;19.57;;;6.20;99.90;;;;;;5077629;28;20537;-82
2021/03/01 02:12:02;;;;;;;;;;;;;;;;;;;;;
2021/03/01 02:14:31;;;;;;;26.27;19.97;;;6.20;99.90;;;;;;5090711;27;20175;-84
2021/03/01 02:17:01;;;;;;;23.73;19.20;;;6.20;99.90;;;;;;5116193;28;20163;-85
2021/03/01 02:19:31;;;;;;;27.90;20.57;;;6.20;99.90;;;;;;5116757;27;20225;-83
2021/03/01 02:22:00;;;;;;;26.63;20.60;;;6.20;99.90;;;;;;5116352;27;20202;-82
2021/03/01 02:29:21;;;;;;;;;;;;;;;;;;;;;
2021/03/01 02:32:12;;;;;;;23.87;19.37;;;6.10;99.90;;;;;;5013235;28;20706;-88
2021/03/01 02:34:57;;;;;;;30.60;20.80;;;6.10;99.90;;;;;;5096000;28;20217;-88
2021/03/01 02:37:25;;;;;;;27.37;20.43;;;6.00;99.90;;;;;;5096663;28;20172;-88
2021/03/01 02:39:55;;;;;;;28.90;21.40;;;6.00;99.90;;;;;;5100363;28;20153;-88
2021/03/01 02:42:41;;;;;;;23.60;19.57;;;6.00;99.90;;;;;;5108617;28;20218;-86
2021/03/01 02:45:53;;;;;;;29.77;20.73;;;5.90;99.90;;;;;;5108224;28;20164;-86
2021/03/01 02:48:39;;;;;;;27.70;21.03;;;5.90;99.90;;;;;;5112577;28;20175;-82
2021/03/01 02:52:02;;;;;;;27.27;20.87;;;5.80;99.90;;;;;;5100087;28;20180;-80
2021/03/01 02:54:48;;;;;;;27.80;21.03;;;5.90;99.90;;;;;;5080339;28;20188;-87
2021/03/01 03:01:38;;;;;;;26.87;20.97;;;5.70;99.90;;;;;;5028321;28;20204;-86
2021/03/01 03:04:15;;;;;;;28.73;21.53;;;5.60;99.90;;;;;;5065386;28;20253;-87
2021/03/01 03:10:04;;;;;;;29.57;21.87;;;5.70;99.90;;;;;;5044767;28;20188;-87
2021/03/01 03:13:00;;;;;;;29.50;22.93;;;5.70;99.90;;;;;;5078764;28;20269;-89
2021/03/01 03:15:39;;;;;;;26.43;20.73;;;5.60;99.90;;;;;;5079209;28;20176;-86
2021/03/01 03:18:10;;;;;;;27.63;21.83;;;5.50;99.90;;;;;;5082182;28;20369;-88
2021/03/01 03:20:52;;;;;;;26.97;22.60;;;5.50;99.90;;;;;;5101120;28;20522;-87
2021/03/01 03:23:32;;;;;;;27.60;21.10;;;5.50;99.90;;;;;;5100598;28;20273;-87
2021/03/01 03:29:28;;;;;;;29.47;22.10;;;5.40;99.90;;;;;;5039445;28;20184;-88
2021/03/01 03:31:58;;;;;;;32.67;23.40;;;5.40;99.90;;;;;;5091908;28;20658;-85
2021/03/01 03:34:33;;;;;;;28.43;22.80;;;5.30;99.90;;;;;;5100125;28;20249;-88
2021/03/01 03:37:37;;;;;;;34.70;23.17;;;5.30;99.90;;;;;;5097017;28;20610;-87
2021/03/01 03:40:08;;;;;;;27.27;22.70;;;5.30;99.90;;;;;;5034695;28;20208;-87
2021/03/01 03:42:38;;;;;;;30.70;24.23;;;5.20;99.90;;;;;;5105312;27;20274;-81
2021/03/01 03:45:34;;;;;;;31.37;23.50;;;5.20;99.90;;;;;;5115842;27;20197;-82
2021/03/01 03:48:03;;;;;;;32.30;22.90;;;5.10;99.90;;;;;;5101663;28;20183;-83
2021/03/01 03:50:42;;;;;;;29.40;23.70;;;5.00;99.90;;;;;;5116144;28;20148;-86
2021/03/01 03:53:16;;;;;;;32.33;24.57;;;5.00;99.90;;;;;;5101362;28;20219;-88
2021/03/01 03:55:56;;;;;;;33.40;25.00;;;5.00;99.90;;;;;;5095473;28;20182;-85
2021/03/01 03:58:31;;;;;;;34.37;25.17;;;4.90;99.90;;;;;;5096874;28;20168;-87
2021/03/01 04:01:03;;;;;;;31.83;23.83;;;4.90;99.90;;;;;;5096321;28;20214;-88
2021/03/01 04:03:34;;;;;;;35.23;26.13;;;5.00;99.90;;;;;;5089156;28;20190;-88
2021/03/01 04:06:01;;;;;;;31.40;25.60;;;4.90;99.90;;;;;;5094472;28;20176;-87
2021/03/01 04:08:30;;;;;;;35.70;25.97;;;4.90;99.90;;;;;;5096145;28;20164;-86
2021/03/01 04:10:58;;;;;;;36.90;27.73;;;4.90;99.90;;;;;;5102366;28;20194;-84
2021/03/01 04:13:29;;;;;;;35.87;26.30;;;4.90;99.90;;;;;;5116384;28;20168;-84
2021/03/01 04:15:56;;;;;;;35.57;26.63;;;4.90;99.90;;;;;;5102059;28;20159;-86
2021/03/01 04:18:28;;;;;;;41.00;26.60;;;4.80;99.90;;;;;;5097331;28;20207;-86
2021/03/01 04:20:55;;;;;;;36.43;26.27;;;4.80;99.90;;;;;;5102197;28;20258;-87
2021/03/01 04:23:30;;;;;;;35.20;25.93;;;4.70;99.90;;;;;;5100041;28;20203;-88
2021/03/01 04:26:32;;;;;;;36.47;26.97;;;4.70;99.90;;;;;;5108742;28;20178;-86
2021/03/01 04:29:02;;;;;;;37.47;28.17;;;4.70;99.90;;;;;;5093955;28;20207;-87
2021/03/01 04:31:29;;;;;;;40.50;28.30;;;4.60;99.90;;;;;;5097184;28;20169;-87
2021/03/01 04:34:01;;;;;;;37.57;28.50;;;4.60;99.90;;;;;;5097244;28;20152;-87
2021/03/01 04:36:29;;;;;;;39.90;29.87;;;4.60;99.90;;;;;;5078995;28;20262;-87
2021/03/01 04:38:56;;;;;;;40.97;27.50;;;4.70;99.90;;;;;;5095964;28;20199;-82
2021/03/01 04:41:22;;;;;;;46.73;32.73;;;4.70;99.90;;;;;;5097984;28;20256;-85
2021/03/01 04:43:51;;;;;;;44.47;33.10;;;4.70;99.90;;;;;;5097310;28;20176;-84
2021/03/01 04:46:21;;;;;;;46.10;33.63;;;4.70;99.90;;;;;;5096862;28;20503;-85
2021/03/01 04:48:50;;;;;;;44.93;33.17;;;4.70;99.90;;;;;;5096441;28;20167;-87
2021/03/01 04:51:16;;;;;;;43.90;31.40;;;4.70;99.90;;;;;;5100994;28;20167;-84
2021/03/01 04:53:43;;;;;;;40.57;32.13;;;4.70;99.90;;;;;;5100724;28;20224;-86
2021/03/01 04:56:10;;;;;;;43.60;33.10;;;4.70;99.90;;;;;;5100522;28;20163;-83
2021/03/01 04:58:37;;;;;;;48.37;34.40;;;4.70;99.90;;;;;;5100608;28;20168;-84
2021/03/01 05:01:06;;;;;;;49.17;33.00;;;4.60;99.90;;;;;;5098946;28;20222;-87
2021/03/01 05:03:32;;;;;;;51.00;35.03;;;4.70;99.90;;;;;;5102425;28;20212;-88
2021/03/01 05:06:04;;;;;;;48.87;34.70;;;4.60;99.90;;;;;;5100224;28;20163;-87
2021/03/01 05:08:34;;;;;;;49.50;34.97;;;4.60;99.90;;;;;;5104666;28;20250;-82
2021/03/01 05:11:04;;;;;;;52.33;36.43;;;4.60;99.90;;;;;;5119540;27;20176;-86
2021/03/01 05:13:29;;;;;;;66.37;42.27;;;4.70;99.90;;;;;;5115668;28;20160;-87
2021/03/01 05:15:59;;;;;;;64.67;41.70;;;4.90;99.90;;;;;;5119134;27;20206;-84
2021/03/01 05:18:29;;;;;;;88.10;55.13;;;4.70;99.90;;;;;;5103226;28;20172;-85
2021/03/01 05:20:56;;;;;;;82.40;49.43;;;4.70;99.90;;;;;;5101306;28;20163;-86
2021/03/01 05:23:23;;;;;;;87.63;51.60;;;4.70;99.90;;;;;;5098595;28;20195;-87
2021/03/01 05:25:51;;;;;;;74.13;47.40;;;4.70;99.90;;;;;;5099369;28;20243;-87
2021/03/01 05:28:48;;;;;;;;;;;;;;;;;;;;;
2021/03/01 05:31:19;;;;;;;64.47;40.17;;;4.60;99.90;;;;;;5098964;28;20167;-85
2021/03/01 05:33:48;;;;;;;63.77;38.93;;;4.50;99.90;;;;;;5098448;28;20164;-83
2021/03/01 05:36:15;;;;;;;70.33;42.40;;;4.50;99.90;;;;;;5098711;28;20247;-88
2021/03/01 05:38:41;;;;;;;65.37;40.40;;;4.40;99.90;;;;;;5099976;28;20179;-87
2021/03/01 05:41:11;;;;;;;63.20;39.70;;;4.40;99.90;;;;;;5099680;28;20221;-82
2021/03/01 05:43:48;;;;;;;64.17;39.83;;;4.40;99.90;;;;;;5103313;28;20183;-82
2021/03/01 05:46:15;;;;;;;68.50;38.30;;;4.30;99.90;;;;;;5112681;28;20171;-81
2021/03/01 05:48:42;;;;;;;64.63;38.00;;;4.30;99.90;;;;;;5099291;28;20179;-82
2021/03/01 05:51:09;;;;;;;63.23;38.63;;;4.20;99.90;;;;;;5098105;28;20701;-87
2021/03/01 05:54:04;;;;;;;63.93;38.63;;;4.20;99.90;;;;;;5099094;28;20175;-86
2021/03/01 05:56:32;;;;;;;64.17;38.70;;;4.10;99.90;;;;;;5102311;28;20164;-82
2021/03/01 05:59:01;;;;;;;58.13;34.20;;;4.10;99.90;;;;;;5107045;28;20167;-87
2021/03/01 06:01:31;;;;;;;68.00;41.07;;;4.00;99.90;;;;;;5096969;28;20196;-87
2021/03/01 06:03:58;;;;;;;66.93;39.63;;;4.00;99.90;;;;;;5098758;28;20167;-84
2021/03/01 06:06:36;;;;;;;70.07;38.20;;;4.00;99.90;;;;;;5099087;28;20517;-87
2021/03/01 06:09:02;;;;;;;80.17;43.70;;;4.00;99.90;;;;;;5098210;28;20255;-82
2021/03/01 06:11:28;;;;;;;77.90;42.47;;;4.00;99.90;;;;;;5102099;28;20187;-85
2021/03/01 06:13:57;;;;;;;77.50;42.43;;;3.90;99.90;;;;;;5105721;28;20191;-87
2021/03/01 06:16:23;;;;;;;77.23;41.50;;;3.90;99.90;;;;;;5098607;28;20639;-87
2021/03/01 06:18:49;;;;;;;80.73;44.97;;;3.90;99.90;;;;;;5097639;28;20179;-87
2021/03/01 06:21:22;;;;;;;101.23;45.17;;;3.90;99.90;;;;;;5098551;28;20176;-83
2021/03/01 06:23:51;;;;;;;89.87;46.90;;;3.80;99.90;;;;;;5097727;28;20183;-84
2021/03/01 06:26:28;;;;;;;90.17;48.07;;;3.80;99.90;;;;;;5097492;28;20217;-87
2021/03/01 06:29:02;;;;;;;97.47;48.43;;;3.80;99.90;;;;;;5100235;28;20192;-86
2021/03/01 06:31:48;;;;;;;89.93;46.63;;;3.80;99.90;;;;;;5098714;28;20171;-86
2021/03/01 06:34:21;;;;;;;85.73;45.00;;;3.80;99.90;;;;;;5099336;28;20247;-87
2021/03/01 06:37:12;;;;;;;83.27;44.10;;;3.80;99.90;;;;;;5099257;28;20196;-84
2021/03/01 06:39:51;;;;;;;81.03;45.50;;;3.70;99.90;;;;;;5098565;28;20286;-83
2021/03/01 06:42:19;;;;;;;85.97;47.10;;;3.70;99.90;;;;;;5098239;28;20191;-86
2021/03/01 06:45:08;;;;;;;90.83;48.73;;;3.70;99.90;;;;;;5096978;28;20179;-87
2021/03/01 06:47:55;;;;;;;84.50;45.50;;;3.70;99.90;;;;;;5096101;28;20183;-84
2021/03/01 06:50:46;;;;;;;78.33;43.10;;;3.70;99.90;;;;;;5095844;28;20314;-86
2021/03/01 06:53:22;;;;;;;66.50;37.77;;;3.90;99.90;;;;;;5098354;28;20202;-86
2021/03/01 06:55:59;;;;;;;67.00;39.37;;;3.60;99.90;;;;;;5100133;28;20254;-84
2021/03/01 06:58:27;;;;;;;77.97;40.47;;;3.80;99.90;;;;;;5097454;28;20176;-87
2021/03/01 07:01:02;;;;;;;71.33;40.80;;;3.50;99.90;;;;;;5096552;28;20313;-82
2021/03/01 07:03:47;;;;;;;73.43;41.73;;;3.60;99.90;;;;;;5097272;28;20257;-85
2021/03/01 07:06:17;;;;;;;72.20;41.33;;;3.60;99.90;;;;;;5088652;28;20192;-84
2021/03/01 07:08:49;;;;;;;81.70;42.57;;;3.70;99.90;;;;;;5083910;28;20263;-83
2021/03/01 07:11:34;;;;;;;78.93;44.10;;;3.80;99.90;;;;;;5081234;28;20179;-82
2021/03/01 07:14:08;;;;;;;76.60;43.20;;;3.70;99.90;;;;;;5085937;28;20218;-82
2021/03/01 07:16:57;;;;;;;80.50;43.23;;;3.80;99.90;;;;;;5080664;28;20617;-85
2021/03/01 07:19:30;;;;;;;73.60;40.60;;;3.70;99.90;;;;;;5087355;28;20176;-85
2021/03/01 07:22:02;;;;;;;79.73;43.90;;;3.70;99.90;;;;;;5078463;28;20203;-85
2021/03/01 07:24:31;;;;;;;70.20;37.83;;;3.70;99.90;;;;;;5080323;28;20164;-86
2021/03/01 07:26:59;;;;;;;70.97;38.30;;;3.70;99.90;;;;;;5078079;28;20184;-84
2021/03/01 07:29:30;;;;;;;82.37;42.23;;;3.80;99.90;;;;;;5085297;28;20176;-84
2021/03/01 07:32:03;;;;;;;79.90;41.43;;;3.70;99.90;;;;;;5095546;28;20195;-82
2021/03/01 07:34:36;;;;;;;82.00;41.30;;;3.80;99.90;;;;;;5079493;28;20161;-84
2021/03/01 07:37:03;;;;;;;77.23;39.03;;;3.80;99.90;;;;;;5074636;28;20173;-84
2021/03/01 07:39:32;;;;;;;85.67;43.63;;;3.80;99.90;;;;;;5075766;28;20164;-84
2021/03/01 07:42:03;;;;;;;86.17;42.10;;;3.80;99.90;;;;;;5080369;28;20199;-84
2021/03/01 07:47:28;;;;;;;77.43;42.17;;;3.90;99.90;;;;;;5104315;28;20164;-83
2021/03/01 07:49:54;;;;;;;84.33;43.73;;;3.90;99.90;;;;;;5097302;28;20174;-84
2021/03/01 07:52:30;;;;;;;73.87;36.93;;;3.90;99.90;;;;;;5097831;28;20211;-83
2021/03/01 07:55:05;;;;;;;79.80;39.77;;;3.90;99.90;;;;;;5094092;28;20685;-83
2021/03/01 07:57:33;;;;;;;75.67;40.40;;;3.70;99.90;;;;;;5088573;28;20282;-84
2021/03/01 08:00:22;;;;;;;74.57;38.37;;;3.90;99.90;;;;;;5092092;28;20255;-84
2021/03/01 08:02:51;;;;;;;76.70;37.53;;;3.90;99.90;;;;;;5094959;28;20203;-83
2021/03/01 08:05:30;;;;;;;74.80;39.47;;;3.90;99.90;;;;;;5095997;28;20168;-83
2021/03/01 08:07:58;;;;;;;70.70;39.50;;;3.90;99.90;;;;;;5097429;28;20216;-83
2021/03/01 08:10:27;;;;;;;74.83;41.37;;;4.00;99.90;;;;;;5096182;28;20565;-82
2021/03/01 08:13:30;;;;;;;77.70;40.73;;;4.10;99.90;;;;;;5094030;28;20172;-82
2021/03/01 08:16:19;;;;;;;75.27;40.20;;;4.20;99.90;;;;;;5094457;28;20179;-82
2021/03/01 08:18:57;;;;;;;67.63;38.00;;;4.30;99.90;;;;;;5108456;28;20171;-82
2021/03/01 08:21:45;;;;;;;78.07;40.77;;;4.50;99.90;;;;;;5112844;28;20198;-82
2021/03/01 08:24:49;;;;;;;59.83;31.47;;;4.40;99.90;;;;;;5099228;28;20199;-82
2021/03/01 08:27:27;;;;;;;72.70;35.13;;;4.40;99.90;;;;;;5054589;28;20261;-83
2021/03/01 08:30:25;;;;;;;73.77;38.53;;;4.30;99.90;;;;;;5108982;28;20179;-82
2021/03/01 08:33:32;;;;;;;76.30;38.07;;;4.30;99.90;;;;;;5101350;28;20164;-84
2021/03/01 08:36:00;;;;;;;65.43;36.33;;;4.30;99.90;;;;;;5104750;28;20170;-84
2021/03/01 08:38:53;;;;;;;76.37;38.67;;;4.30;99.90;;;;;;5102532;28;20202;-84
2021/03/01 08:41:40;;;;;;;76.50;37.73;;;4.40;99.90;;;;;;5100581;28;20176;-83
2021/03/01 08:44:22;;;;;;;70.23;36.67;;;4.40;99.90;;;;;;5103023;28;20218;-83
2021/03/01 08:46:50;;;;;;;71.47;39.13;;;4.60;99.90;;;;;;5108456;28;20163;-84
2021/03/01 08:49:25;;;;;;;79.80;40.37;;;4.70;99.90;;;;;;5106190;28;20195;-84
2021/03/01 08:51:52;;;;;;;73.10;37.83;;;4.80;99.90;;;;;;5105030;28;20167;-83
2021/03/01 08:54:26;;;;;;;75.83;39.67;;;4.80;99.90;;;;;;5101476;28;20204;-80
2021/03/01 08:57:03;;;;;;;81.03;39.93;;;4.90;99.90;;;;;;5100307;28;20175;-82
2021/03/01 08:59:29;;;;;;;73.00;39.83;;;5.00;99.90;;;;;;5086172;28;20201;-81
2021/03/01 09:01:55;;;;;;;80.00;41.00;;;5.10;99.90;;;;;;5098792;28;20205;-82
2021/03/01 09:04:21;;;;;;;78.00;40.47;;;5.00;99.90;;;;;;5098231;28;20179;-81
2021/03/01 09:06:46;;;;;;;75.27;39.60;;;4.90;99.90;;;;;;5098133;28;20187;-82
2021/03/01 09:09:12;;;;;;;72.43;35.83;;;5.00;99.90;;;;;;5097158;28;20521;-80
2021/03/01 09:11:39;;;;;;;67.40;35.93;;;5.10;99.90;;;;;;5098273;28;20199;-82
2021/03/01 09:14:06;;;;;;;68.23;36.60;;;5.00;99.90;;;;;;5097886;28;20536;-83
2021/03/01 09:16:39;;;;;;;63.60;34.93;;;5.00;99.90;;;;;;5096773;28;20265;-83
2021/03/01 09:19:13;;;;;;;65.87;34.83;;;4.90;99.90;;;;;;5096961;28;20216;-82
2021/03/01 09:21:43;;;;;;;69.57;35.93;;;4.90;99.90;;;;;;5098022;28;20278;-82
2021/03/01 09:24:10;;;;;;;66.50;35.20;;;4.90;99.90;;;;;;5096318;28;20262;-81
2021/03/01 09:26:45;;;;;;;69.03;36.07;;;5.00;99.90;;;;;;5096082;28;20317;-84
2021/03/01 09:29:13;;;;;;;72.13;36.73;;;5.20;99.90;;;;;;5097276;28;20187;-82
2021/03/01 09:31:46;;;;;;;63.03;35.73;;;5.40;99.90;;;;;;5099083;28;20187;-81
2021/03/01 09:34:15;;;;;;;66.13;34.70;;;5.40;99.90;;;;;;5099840;28;20184;-80
2021/03/01 09:36:47;;;;;;;61.43;33.50;;;5.40;99.90;;;;;;5103022;28;20171;-80
2021/03/01 09:39:25;;;;;;;68.10;35.00;;;5.50;99.90;;;;;;5094925;28;20172;-79
2021/03/01 09:41:52;;;;;;;63.83;34.33;;;5.50;99.90;;;;;;5093670;28;20210;-80
2021/03/01 09:44:27;;;;;;;63.83;34.60;;;5.60;99.90;;;;;;5098918;28;20530;-82
2021/03/01 09:46:54;;;;;;;67.63;35.30;;;5.60;99.90;;;;;;5098456;28;20163;-83
2021/03/01 09:49:21;;;;;;;62.93;33.60;;;5.70;99.90;;;;;;5098630;28;20163;-83
2021/03/01 09:51:48;;;;;;;60.17;33.07;;;5.70;99.90;;;;;;5098331;28;20160;-83
2021/03/01 09:54:14;;;;;;;70.57;36.37;;;5.80;99.90;;;;;;5098985;28;20167;-81
2021/03/01 09:56:44;;;;;;;66.80;36.23;;;5.90;99.90;;;;;;5098880;28;20344;-80
2021/03/01 09:59:10;;;;;;;67.90;36.13;;;5.90;99.90;;;;;;5099009;28;20167;-80
2021/03/01 10:01:36;;;;;;;67.90;35.77;;;6.00;99.90;;;;;;5097400;28;20203;-80
2021/03/01 10:04:05;;;;;;;66.27;34.10;;;6.30;99.90;;;;;;5100199;28;20171;-82
2021/03/01 10:06:42;;;;;;;62.23;34.77;;;6.40;99.90;;;;;;5090335;28;20211;-80
2021/03/01 10:09:11;;;;;;;60.83;33.33;;;6.50;99.90;;;;;;5077326;28;20263;-80
2021/03/01 10:11:39;;;;;;;65.83;35.67;;;6.50;99.90;;;;;;5077208;28;20196;-80
2021/03/01 10:14:11;;;;;;;66.77;35.57;;;6.60;99.90;;;;;;5075292;28;20178;-82
2021/03/01 10:16:39;;;;;;;61.60;33.40;;;6.70;99.90;;;;;;5076365;28;20176;-81
2021/03/01 10:19:23;;;;;;;64.40;34.80;;;6.80;99.90;;;;;;5074401;28;20180;-81
2021/03/01 10:21:50;;;;;;;58.90;34.00;;;6.80;99.90;;;;;;5075104;28;20219;-79
2021/03/01 10:24:18;;;;;;;56.73;33.50;;;6.90;99.90;;;;;;5076898;28;20192;-80
2021/03/01 10:26:56;;;;;;;56.87;32.13;;;7.00;99.90;;;;;;5075685;28;20266;-82
2021/03/01 10:29:37;;;;;;;52.53;31.10;;;7.20;99.90;;;;;;5075583;28;20628;-81
2021/03/01 10:32:04;;;;;;;58.57;32.87;;;7.20;99.90;;;;;;5074507;28;20172;-81
2021/03/01 10:34:32;;;;;;;63.23;32.67;;;7.20;99.90;;;;;;5075170;28;20176;-81
2021/03/01 10:36:59;;;;;;;63.27;34.20;;;7.10;99.90;;;;;;5077576;28;20185;-80
2021/03/01 10:39:35;;;;;;;57.43;31.90;;;7.10;99.90;;;;;;5079010;28;20544;-82
2021/03/01 10:42:17;;;;;;;58.40;31.27;;;7.30;99.90;;;;;;5078240;28;20196;-82
2021/03/01 10:44:54;;;;;;;62.97;33.77;;;7.10;99.90;;;;;;5078148;28;20640;-81
2021/03/01 10:47:28;;;;;;;58.27;33.37;;;7.00;99.90;;;;;;5074780;28;20172;-84
2021/03/01 10:49:56;;;;;;;62.17;34.07;;;7.10;99.90;;;;;;5077703;28;20171;-83
2021/03/01 10:52:25;;;;;;;60.50;33.13;;;7.10;99.90;;;;;;5097016;28;20207;-83
2021/03/01 10:54:53;;;;;;;56.37;32.67;;;7.20;99.90;;;;;;5095042;28;20199;-81
2021/03/01 10:57:19;;;;;;;63.17;34.50;;;7.30;99.90;;;;;;5095921;28;20537;-80
2021/03/01 10:59:50;;;;;;;54.50;31.03;;;7.30;99.90;;;;;;5098499;28;20197;-81
2021/03/01 11:02:15;;;;;;;54.07;30.77;;;7.70;99.90;;;;;;5095826;28;20253;-82
2021/03/01 11:04:41;;;;;;;51.20;29.10;;;7.60;99.90;;;;;;5096657;28;20522;-83
2021/03/01 11:07:07;;;;;;;55.17;32.00;;;7.70;99.90;;;;;;5094348;28;20171;-81
2021/03/01 11:09:32;;;;;;;54.90;31.40;;;7.70;99.90;;;;;;5094795;28;20180;-82
2021/03/01 11:11:58;;;;;;;56.40;33.23;;;7.80;99.90;;;;;;5095206;28;20186;-82
2021/03/01 11:14:25;;;;;;;55.20;32.83;;;8.00;99.90;;;;;;5098834;28;20162;-83
2021/03/01 11:16:53;;;;;;;56.17;29.90;;;8.10;99.90;;;;;;5097142;28;20203;-82
2021/03/01 11:19:19;;;;;;;53.33;31.07;;;8.10;99.90;;;;;;5096330;28;20255;-85
2021/03/01 11:21:46;;;;;;;55.20;31.73;;;8.10;99.90;;;;;;5096516;28;20191;-82
2021/03/01 11:24:13;;;;;;;56.27;31.10;;;8.10;99.90;;;;;;5095508;28;20525;-82
2021/03/01 11:26:39;;;;;;;54.77;31.53;;;8.20;99.90;;;;;;5095428;28;20168;-82
2021/03/01 11:29:05;;;;;;;57.70;32.80;;;8.30;99.90;;;;;;5096941;28;20195;-83
2021/03/01 11:31:32;;;;;;;51.63;31.57;;;8.40;99.90;;;;;;5097448;28;20175;-82
2021/03/01 11:34:02;;;;;;;55.93;31.13;;;8.50;99.90;;;;;;5098448;28;20172;-83
2021/03/01 11:36:28;;;;;;;59.23;30.73;;;8.50;99.90;;;;;;5103835;28;20195;-82
2021/03/01 11:38:56;;;;;;;57.13;31.13;;;8.40;99.90;;;;;;5105488;28;20246;-82
2021/03/01 11:41:24;;;;;;;50.60;29.93;;;8.50;99.90;;;;;;5104181;28;20178;-81
2021/03/01 11:43:52;;;;;;;54.90;33.30;;;8.40;99.90;;;;;;5096297;28;20217;-82
2021/03/01 11:46:18;;;;;;;55.83;32.87;;;8.50;99.90;;;;;;5082397;28;20180;-82
2021/03/01 11:48:44;;;;;;;60.33;33.33;;;8.60;99.90;;;;;;5074575;28;20191;-82
2021/03/01 11:51:11;;;;;;;52.77;31.30;;;8.70;99.90;;;;;;5074592;28;20222;-82
2021/03/01 11:53:38;;;;;;;59.80;34.67;;;8.80;99.90;;;;;;5074432;28;20259;-82
2021/03/01 11:56:04;;;;;;;58.90;34.27;;;8.80;99.90;;;;;;5077717;28;20336;-79
2021/03/01 11:58:30;;;;;;;52.40;30.73;;;8.90;99.90;;;;;;5076383;28;20170;-81
2021/03/01 12:00:55;;;;;;;56.50;32.40;;;8.90;99.90;;;;;;5074548;28;20172;-81
2021/03/01 12:03:21;;;;;;;57.73;33.50;;;8.70;99.90;;;;;;5083517;28;20207;-84
2021/03/01 12:05:47;;;;;;;62.43;34.50;;;8.70;99.90;;;;;;5096324;28;20184;-82
2021/03/01 12:08:13;;;;;;;59.87;33.73;;;8.80;99.90;;;;;;5095972;28;20186;-80
2021/03/01 12:10:39;;;;;;;57.07;33.57;;;8.90;99.90;;;;;;5096716;28;20259;-84
2021/03/01 12:13:05;;;;;;;56.13;32.87;;;9.00;99.90;;;;;;5095749;28;20703;-82
2021/03/01 12:15:32;;;;;;;55.70;31.50;;;9.20;99.90;;;;;;5093675;28;20251;-81
2021/03/01 12:17:58;;;;;;;59.10;32.20;;;9.40;99.90;;;;;;5092791;28;20238;-80
2021/03/01 12:20:24;;;;;;;54.10;31.47;;;9.40;99.90;;;;;;5086032;28;20644;-80
2021/03/01 12:22:50;;;;;;;53.53;30.13;;;9.50;99.90;;;;;;5077497;28;20210;-81
2021/03/01 12:25:16;;;;;;;50.93;28.83;;;9.60;99.90;;;;;;5092475;28;20183;-81
2021/03/01 12:27:42;;;;;;;51.90;32.40;;;9.70;99.90;;;;;;5096489;28;20715;-81
2021/03/01 12:30:09;;;;;;;56.53;30.50;;;9.80;99.90;;;;;;5097010;28;20191;-81
2021/03/01 12:32:35;;;;;;;51.83;29.47;;;9.80;99.90;;;;;;5095519;28;20326;-82
2021/03/01 12:35:02;;;;;;;53.07;31.13;;;9.70;99.90;;;;;;5095542;28;20203;-81
2021/03/01 12:37:28;;;;;;;53.87;29.90;;;9.70;99.90;;;;;;5096620;28;20226;-80
2021/03/01 12:39:55;;;;;;;55.80;31.70;;;9.60;99.90;;;;;;5096211;28;20172;-83
2021/03/01 12:42:21;;;;;;;56.07;32.33;;;9.60;99.90;;;;;;5097005;28;20256;-80
2021/03/01 12:44:46;;;;;;;60.33;32.27;;;9.70;99.90;;;;;;5096654;28;20168;-80
2021/03/01 12:47:12;;;;;;;60.37;35.37;;;9.90;99.90;;;;;;5096284;28;20185;-79
2021/03/01 12:49:38;;;;;;;66.57;35.57;;;10.00;99.90;;;;;;5090865;28;20176;-79
2021/03/01 12:52:04;;;;;;;68.00;35.83;;;10.30;99.90;;;;;;5092775;28;20616;-81
2021/03/01 12:54:31;;;;;;;66.57;34.63;;;10.10;99.90;;;;;;5096494;28;20234;-81
2021/03/01 12:56:58;;;;;;;66.27;36.47;;;10.00;99.90;;;;;;5097211;28;20171;-84
2021/03/01 12:59:27;;;;;;;69.10;37.00;;;10.00;99.90;;;;;;5095641;28;20176;-80
2021/03/01 13:01:55;;;;;;;69.23;35.93;;;10.00;99.90;;;;;;5094640;28;20222;-82
2021/03/01 13:04:22;;;;;;;72.13;39.47;;;10.00;99.90;;;;;;5100042;28;20281;-81
2021/03/01 13:06:48;;;;;;;74.23;37.93;;;9.90;99.90;;;;;;5100602;28;20186;-80
2021/03/01 13:09:15;;;;;;;69.03;37.47;;;10.00;99.90;;;;;;5093836;28;20176;-80
2021/03/01 13:11:41;;;;;;;71.07;37.67;;;10.10;99.90;;;;;;5097873;28;20232;-82
2021/03/01 13:14:07;;;;;;;67.33;38.20;;;10.10;99.90;;;;;;5100619;28;20611;-80
2021/03/01 13:16:33;;;;;;;72.93;38.53;;;10.20;99.90;;;;;;5098907;28;20156;-80
2021/03/01 13:18:59;;;;;;;74.10;36.97;;;10.40;99.90;;;;;;5101856;28;20183;-84
2021/03/01 13:21:24;;;;;;;64.90;32.93;;;10.50;99.90;;;;;;5097721;28;20205;-82
2021/03/01 13:23:50;;;;;;;64.60;36.50;;;10.50;99.90;;;;;;5096809;28;20201;-80
2021/03/01 13:26:16;;;;;;;67.83;36.93;;;10.40;99.90;;;;;;5097223;28;20680;-82
2021/03/01 13:28:43;;;;;;;69.60;36.37;;;10.40;99.90;;;;;;5098709;28;20196;-82
2021/03/01 13:31:10;;;;;;;69.53;37.67;;;10.50;99.90;;;;;;5099723;28;20232;-80
2021/03/01 13:33:37;;;;;;;66.17;35.67;;;10.70;99.90;;;;;;5104061;28;20168;-78
2021/03/01 13:36:04;;;;;;;67.67;35.87;;;10.70;99.90;;;;;;5105638;28;20179;-81
2021/03/01 13:38:29;;;;;;;69.67;38.10;;;10.60;99.90;;;;;;5099949;28;20187;-80
2021/03/01 13:40:55;;;;;;;69.53;37.00;;;10.70;99.90;;;;;;5100494;28;20171;-80
2021/03/01 13:43:21;;;;;;;63.97;35.07;;;10.70;99.90;;;;;;5097842;28;20203;-82
2021/03/01 13:45:48;;;;;;;66.80;36.87;;;10.80;99.90;;;;;;5097511;28;20164;-80
2021/03/01 13:48:14;;;;;;;67.77;36.97;;;11.00;99.90;;;;;;5096995;28;20168;-82
2021/03/01 13:50:39;;;;;;;74.10;39.43;;;11.00;99.90;;;;;;5096497;28;20171;-80
2021/03/01 13:53:05;;;;;;;70.33;38.60;;;11.10;99.90;;;;;;5096740;28;20550;-81
2021/03/01 13:55:31;;;;;;;65.17;35.90;;;11.30;99.90;;;;;;5098227;28;20524;-81